Time;durP1;ratioP1;P1;durP2;ratioP2;P2;SDS_P1;SDS_P2;PMS_P1;PMS_P2;Temp;Humidity;BMP_temperature;BMP_pressure;BME280_temperature;BME280_humidity;BME280_pressure;Samples;Min_cycle;Max_cycle;Signal;HPM_P1;HPM_P2
2021/08/14 00:01:29;;;;;;;18.20;4.88;;;;;;;;;;6271796;22;20079;-84
2021/08/14 00:03:56;;;;;;;23.70;5.72;;;;;;;;;;6298484;22;20157;-84
2021/08/14 00:06:23;;;;;;;14.02;4.00;;;;;;;;;;6284314;22;20102;-85
2021/08/14 00:08:49;;;;;;;13.07;4.50;;;;;;;;;;6281845;22;20177;-85
2021/08/14 00:11:19;;;;;;;18.17;5.40;;;;;;;;;;6252580;22;20089;-85
2021/08/14 00:13:46;;;;;;;20.08;4.57;;;;;;;;;;6268043;22;20202;-85
2021/08/14 00:16:12;;;;;;;22.52;4.55;;;;;;;;;;6251653;22;20036;-85
2021/08/14 00:18:39;;;;;;;12.98;5.00;;;;;;;;;;6254855;22;20406;-85
2021/08/14 00:21:12;;;;;;;14.23;4.63;;;;;;;;;;6281928;22;20034;-85
2021/08/14 00:23:43;;;;;;;18.42;4.97;;;;;;;;;;6274587;22;20019;-85
2021/08/14 00:26:10;;;;;;;15.80;4.65;;;;;;;;;;6276035;22;20019;-85
2021/08/14 00:28:37;;;;;;;20.88;4.68;;;;;;;;;;6263693;22;20366;-85
2021/08/14 00:31:03;;;;;;;15.63;4.90;;;;;;;;;;6250565;22;20019;-86
2021/08/14 00:33:30;;;;;;;13.45;4.40;;;;;;;;;;6282451;22;20035;-83
2021/08/14 00:35:56;;;;;;;16.95;5.07;;;;;;;;;;6277482;22;20028;-84
2021/08/14 00:38:29;;;;;;;21.92;5.00;;;;;;;;;;6243854;22;20020;-84
2021/08/14 00:41:21;;;;;;;15.90;4.95;;;;;;;;;;6263469;22;20059;-84
2021/08/14 00:43:48;;;;;;;15.30;4.88;;;;;;;;;;6250852;23;20554;-84
2021/08/14 00:46:14;;;;;;;10.93;4.90;;;;;;;;;;6225142;23;20035;-85
2021/08/14 00:48:41;;;;;;;16.38;5.35;;;;;;;;;;6224359;23;20028;-85
2021/08/14 00:51:08;;;;;;;14.32;4.60;;;;;;;;;;6249051;23;20021;-85
2021/08/14 00:53:35;;;;;;;20.17;5.25;;;;;;;;;;6224620;23;20055;-85
2021/08/14 00:56:03;;;;;;;15.52;5.43;;;;;;;;;;6227692;23;20025;-86
2021/08/14 00:58:30;;;;;;;16.90;5.00;;;;;;;;;;6250717;23;20189;-84
2021/08/14 01:00:56;;;;;;;15.07;4.75;;;;;;;;;;6254197;23;20035;-84
2021/08/14 01:03:27;;;;;;;18.13;5.05;;;;;;;;;;6236872;23;20012;-85
2021/08/14 01:05:54;;;;;;;22.98;5.65;;;;;;;;;;6268674;22;20024;-84
2021/08/14 01:08:21;;;;;;;23.00;5.03;;;;;;;;;;6257822;23;20036;-84
2021/08/14 01:10:48;;;;;;;22.58;5.05;;;;;;;;;;6250893;23;20028;-84
2021/08/14 01:13:14;;;;;;;13.77;4.68;;;;;;;;;;6229650;23;20028;-84
2021/08/14 01:15:51;;;;;;;20.08;4.97;;;;;;;;;;6250572;23;20027;-84
2021/08/14 01:18:18;;;;;;;25.30;5.70;;;;;;;;;;6224622;23;20032;-84
2021/08/14 01:20:45;;;;;;;21.27;5.03;;;;;;;;;;6224552;23;20028;-84
2021/08/14 01:23:12;;;;;;;19.70;4.95;;;;;;;;;;6222808;23;20112;-84
2021/08/14 01:25:39;;;;;;;18.15;5.50;;;;;;;;;;6223962;23;20030;-84
2021/08/14 01:28:06;;;;;;;14.88;5.20;;;;;;;;;;6225743;23;20024;-84
2021/08/14 01:30:37;;;;;;;15.30;4.75;;;;;;;;;;6251036;23;20040;-84
2021/08/14 01:33:04;;;;;;;16.90;4.93;;;;;;;;;;6223686;23;20024;-84
2021/08/14 01:35:31;;;;;;;16.80;5.47;;;;;;;;;;6229815;22;20244;-85
2021/08/14 01:37:58;;;;;;;14.00;5.38;;;;;;;;;;6253621;22;20028;-85
2021/08/14 01:40:24;;;;;;;21.58;6.05;;;;;;;;;;6280861;22;20034;-84
2021/08/14 01:42:51;;;;;;;19.08;5.60;;;;;;;;;;6254780;22;20403;-85
2021/08/14 01:45:25;;;;;;;17.27;5.40;;;;;;;;;;6282203;22;20372;-84
2021/08/14 01:47:51;;;;;;;17.60;5.57;;;;;;;;;;6281542;22;20077;-84
2021/08/14 01:50:18;;;;;;;17.48;5.72;;;;;;;;;;6244755;22;20024;-84
2021/08/14 01:52:54;;;;;;;16.67;5.85;;;;;;;;;;6283511;22;20390;-84
2021/08/14 01:55:21;;;;;;;15.30;4.70;;;;;;;;;;6256605;22;20019;-84
2021/08/14 01:57:48;;;;;;;20.02;5.25;;;;;;;;;;6254984;22;20023;-84
2021/08/14 02:00:14;;;;;;;15.55;4.80;;;;;;;;;;6280249;22;20020;-84
2021/08/14 02:02:41;;;;;;;24.48;5.82;;;;;;;;;;6279024;22;20030;-84
2021/08/14 02:05:08;;;;;;;20.17;6.53;;;;;;;;;;6280431;22;20364;-84
2021/08/14 02:07:35;;;;;;;20.15;6.20;;;;;;;;;;6252735;22;20303;-84
2021/08/14 02:10:02;;;;;;;18.27;5.70;;;;;;;;;;6279163;22;20125;-84
2021/08/14 02:12:28;;;;;;;19.33;6.10;;;;;;;;;;6252114;22;20020;-84
2021/08/14 02:14:55;;;;;;;14.27;6.10;;;;;;;;;;6254076;22;20086;-84
2021/08/14 02:17:22;;;;;;;20.27;6.28;;;;;;;;;;6268386;22;20023;-82
2021/08/14 02:19:48;;;;;;;21.40;6.38;;;;;;;;;;6278379;22;20024;-82
2021/08/14 02:22:15;;;;;;;18.77;6.15;;;;;;;;;;6279344;22;20105;-82
2021/08/14 02:24:41;;;;;;;18.02;6.03;;;;;;;;;;6294312;22;20030;-82
2021/08/14 02:27:08;;;;;;;15.32;5.55;;;;;;;;;;6294883;22;20031;-82
2021/08/14 02:29:35;;;;;;;20.60;6.03;;;;;;;;;;6254135;22;20046;-83
2021/08/14 02:32:02;;;;;;;18.83;5.40;;;;;;;;;;6277864;22;20023;-82
2021/08/14 02:34:28;;;;;;;21.48;6.07;;;;;;;;;;6278585;22;20386;-83
2021/08/14 02:36:55;;;;;;;20.40;6.07;;;;;;;;;;6278926;22;20321;-83
2021/08/14 02:39:22;;;;;;;20.75;6.10;;;;;;;;;;6276837;22;20031;-83
2021/08/14 02:41:49;;;;;;;22.23;5.93;;;;;;;;;;6278468;22;20028;-83
2021/08/14 02:44:15;;;;;;;17.17;6.30;;;;;;;;;;6273854;22;20042;-83
2021/08/14 02:46:42;;;;;;;20.63;6.43;;;;;;;;;;6275063;22;20008;-83
2021/08/14 02:49:09;;;;;;;16.30;5.68;;;;;;;;;;6293017;22;20028;-83
2021/08/14 02:51:36;;;;;;;22.67;6.25;;;;;;;;;;6254301;22;20028;-83
2021/08/14 02:54:12;;;;;;;20.45;6.10;;;;;;;;;;6278228;22;20324;-83
2021/08/14 02:56:38;;;;;;;21.95;6.13;;;;;;;;;;6300520;22;20047;-83
2021/08/14 02:59:05;;;;;;;21.35;6.53;;;;;;;;;;6273217;22;20038;-83
2021/08/14 03:01:41;;;;;;;16.45;6.10;;;;;;;;;;6278580;22;20105;-84
2021/08/14 03:04:07;;;;;;;;;;;;;;;;;;6276664;22;20024;-83
2021/08/14 03:06:34;;;;;;;19.50;6.50;;;;;;;;;;6277155;22;19915;-83
2021/08/14 03:09:01;;;;;;;17.77;5.80;;;;;;;;;;6251599;22;20194;-84
2021/08/14 03:11:28;;;;;;;20.48;6.80;;;;;;;;;;6243550;23;20097;-84
2021/08/14 03:13:54;;;;;;;18.67;5.88;;;;;;;;;;6273647;22;20032;-83
2021/08/14 03:16:21;;;;;;;17.33;6.28;;;;;;;;;;6280462;22;20066;-83
2021/08/14 03:18:48;;;;;;;16.13;6.40;;;;;;;;;;6279543;22;20034;-83
2021/08/14 03:21:14;;;;;;;22.92;6.05;;;;;;;;;;6253159;22;20027;-83
2021/08/14 03:23:41;;;;;;;18.73;6.28;;;;;;;;;;6278804;22;20031;-83
2021/08/14 03:26:08;;;;;;;16.50;5.75;;;;;;;;;;6251236;22;20023;-83
2021/08/14 03:28:34;;;;;;;22.40;5.97;;;;;;;;;;6276491;22;20027;-83
2021/08/14 03:31:01;;;;;;;20.83;5.97;;;;;;;;;;6251423;22;20058;-83
2021/08/14 03:33:28;;;;;;;23.48;6.00;;;;;;;;;;6276635;22;20038;-83
2021/08/14 03:35:55;;;;;;;19.83;6.05;;;;;;;;;;6249802;22;20054;-83
2021/08/14 03:38:27;;;;;;;19.70;5.50;;;;;;;;;;6251622;22;20031;-83
2021/08/14 03:40:53;;;;;;;17.98;6.40;;;;;;;;;;6252237;22;20045;-83
2021/08/14 03:43:23;;;;;;;22.65;6.30;;;;;;;;;;6267554;22;20063;-83
2021/08/14 03:45:59;;;;;;;24.90;6.55;;;;;;;;;;6265255;22;20024;-84
2021/08/14 03:48:25;;;;;;;;;;;;;;;;;;6284476;22;20066;-83
2021/08/14 03:50:53;;;;;;;14.68;6.22;;;;;;;;;;6256718;22;20224;-83
2021/08/14 03:53:21;;;;;;;22.27;5.95;;;;;;;;;;6264932;22;20008;-83
2021/08/14 03:55:50;;;;;;;22.80;7.32;;;;;;;;;;6274004;22;20155;-82
2021/08/14 03:58:18;;;;;;;21.63;6.50;;;;;;;;;;6261478;22;20027;-82
2021/08/14 04:00:44;;;;;;;18.77;6.78;;;;;;;;;;6278987;22;20402;-82
2021/08/14 04:03:11;;;;;;;13.18;5.50;;;;;;;;;;6252257;22;20047;-82
2021/08/14 04:05:38;;;;;;;19.48;5.43;;;;;;;;;;6278675;22;20055;-82
2021/08/14 04:08:04;;;;;;;14.80;5.47;;;;;;;;;;6254321;22;20028;-83
2021/08/14 04:10:34;;;;;;;23.77;5.82;;;;;;;;;;6250912;22;20417;-83
2021/08/14 04:13:01;;;;;;;19.30;4.80;;;;;;;;;;6252083;22;20032;-83
2021/08/14 04:15:29;;;;;;;24.25;5.88;;;;;;;;;;6278288;22;20028;-83
2021/08/14 04:17:56;;;;;;;17.23;5.70;;;;;;;;;;6251654;22;20282;-83
2021/08/14 04:20:22;;;;;;;13.02;5.13;;;;;;;;;;6278072;22;20031;-84
2021/08/14 04:22:49;;;;;;;27.63;6.45;;;;;;;;;;6249501;22;20027;-84
2021/08/14 04:25:22;;;;;;;14.68;4.63;;;;;;;;;;6251085;22;20020;-84
2021/08/14 04:27:52;;;;;;;22.10;5.90;;;;;;;;;;6252075;22;20023;-83
2021/08/14 04:30:18;;;;;;;15.95;5.30;;;;;;;;;;6279742;22;20144;-83
2021/08/14 04:32:45;;;;;;;21.63;6.25;;;;;;;;;;6279739;22;20027;-83
2021/08/14 04:35:15;;;;;;;19.40;5.68;;;;;;;;;;6253160;22;20027;-83
2021/08/14 04:37:42;;;;;;;23.38;5.15;;;;;;;;;;6224117;23;20028;-83
2021/08/14 04:40:11;;;;;;;16.63;5.13;;;;;;;;;;6245998;23;20077;-83
2021/08/14 04:42:38;;;;;;;19.33;5.80;;;;;;;;;;6221696;23;20398;-82
2021/08/14 04:45:05;;;;;;;18.80;5.70;;;;;;;;;;6246306;23;20035;-83
2021/08/14 04:47:31;;;;;;;16.10;5.38;;;;;;;;;;6247001;23;20020;-83
2021/08/14 04:50:05;;;;;;;18.40;5.07;;;;;;;;;;6221531;23;20082;-83
2021/08/14 04:52:31;;;;;;;16.00;4.60;;;;;;;;;;6223428;23;20103;-83
2021/08/14 04:54:59;;;;;;;24.00;5.18;;;;;;;;;;6222264;23;20062;-84
2021/08/14 04:57:32;;;;;;;13.93;4.80;;;;;;;;;;6222335;23;20099;-83
2021/08/14 04:59:59;;;;;;;18.52;4.70;;;;;;;;;;6231291;23;20024;-83
2021/08/14 05:02:26;;;;;;;15.57;4.93;;;;;;;;;;6266809;23;20024;-83
2021/08/14 05:04:56;;;;;;;20.15;5.28;;;;;;;;;;6259651;23;20024;-84
2021/08/14 05:07:23;;;;;;;23.05;5.40;;;;;;;;;;6223649;23;20076;-83
2021/08/14 05:09:50;;;;;;;21.48;5.25;;;;;;;;;;6248927;23;20056;-83
2021/08/14 05:12:20;;;;;;;20.58;4.75;;;;;;;;;;6246941;23;20024;-83
2021/08/14 05:14:46;;;;;;;18.15;4.75;;;;;;;;;;6220790;23;20038;-84
2021/08/14 05:17:13;;;;;;;12.88;4.82;;;;;;;;;;6253927;23;20082;-83
2021/08/14 05:19:40;;;;;;;18.90;4.90;;;;;;;;;;6240379;22;20026;-83
2021/08/14 05:22:07;;;;;;;17.20;4.57;;;;;;;;;;6243049;22;20016;-84
2021/08/14 05:24:33;;;;;;;14.88;4.45;;;;;;;;;;6241618;23;20023;-83
2021/08/14 05:27:00;;;;;;;18.38;6.40;;;;;;;;;;6268303;23;20024;-84
2021/08/14 05:29:27;;;;;;;19.20;5.40;;;;;;;;;;6232679;23;20024;-83
2021/08/14 05:31:53;;;;;;;13.20;4.43;;;;;;;;;;6251183;23;20028;-84
2021/08/14 05:34:20;;;;;;;16.63;4.35;;;;;;;;;;6249922;23;20028;-83
2021/08/14 05:36:46;;;;;;;13.95;4.43;;;;;;;;;;6243672;22;20059;-83
2021/08/14 05:39:13;;;;;;;17.00;4.25;;;;;;;;;;6255308;22;20051;-82
2021/08/14 05:41:42;;;;;;;18.67;4.68;;;;;;;;;;6297820;22;20008;-82
2021/08/14 05:44:08;;;;;;;16.65;5.00;;;;;;;;;;6299738;22;20080;-82
2021/08/14 05:46:35;;;;;;;18.95;4.35;;;;;;;;;;6272876;22;20023;-83
2021/08/14 05:49:02;;;;;;;17.02;4.82;;;;;;;;;;6272388;22;20012;-83
2021/08/14 05:51:29;;;;;;;12.60;3.90;;;;;;;;;;6297977;22;20098;-83
2021/08/14 05:54:15;;;;;;;18.23;4.57;;;;;;;;;;6272459;22;20034;-83
2021/08/14 05:56:42;;;;;;;18.02;4.60;;;;;;;;;;6256666;22;20106;-83
2021/08/14 05:59:15;;;;;;;13.68;4.32;;;;;;;;;;6294214;22;20028;-83
2021/08/14 06:01:41;;;;;;;19.80;4.10;;;;;;;;;;6263615;22;20043;-83
2021/08/14 06:04:08;;;;;;;22.63;4.38;;;;;;;;;;6251656;22;20095;-83
2021/08/14 06:06:35;;;;;;;13.10;4.95;;;;;;;;;;6251712;22;20027;-85
2021/08/14 06:09:02;;;;;;;12.73;4.80;;;;;;;;;;6250786;22;20043;-83
2021/08/14 06:11:29;;;;;;;13.55;4.43;;;;;;;;;;6276870;22;20094;-84
2021/08/14 06:13:56;;;;;;;20.15;5.03;;;;;;;;;;6248272;22;20019;-82
2021/08/14 06:16:23;;;;;;;23.17;4.28;;;;;;;;;;6247422;22;20081;-83
2021/08/14 06:18:49;;;;;;;20.95;4.85;;;;;;;;;;6251661;22;20344;-83
2021/08/14 06:21:16;;;;;;;19.80;4.47;;;;;;;;;;6251917;22;20023;-83
2021/08/14 06:23:46;;;;;;;18.98;4.95;;;;;;;;;;6252215;22;20027;-83
2021/08/14 06:26:12;;;;;;;16.85;4.30;;;;;;;;;;6251942;22;20051;-83
2021/08/14 06:28:39;;;;;;;18.27;5.22;;;;;;;;;;6276866;22;20054;-83
2021/08/14 06:31:14;;;;;;;22.33;5.13;;;;;;;;;;6250051;22;20074;-83
2021/08/14 06:33:41;;;;;;;15.60;4.60;;;;;;;;;;6274896;22;20023;-83
2021/08/14 06:36:08;;;;;;;17.63;4.13;;;;;;;;;;6275491;22;20038;-84
2021/08/14 06:38:38;;;;;;;19.40;4.38;;;;;;;;;;6285098;22;20023;-83
2021/08/14 06:41:05;;;;;;;16.58;4.82;;;;;;;;;;6266960;22;20071;-85
2021/08/14 06:43:31;;;;;;;19.17;4.50;;;;;;;;;;6254639;22;20508;-84
2021/08/14 06:45:58;;;;;;;17.75;4.80;;;;;;;;;;6276315;22;20339;-84
2021/08/14 06:48:25;;;;;;;20.85;5.10;;;;;;;;;;6275059;22;20432;-83
2021/08/14 06:50:54;;;;;;;17.73;4.68;;;;;;;;;;6248596;22;20081;-83
2021/08/14 06:53:23;;;;;;;17.45;4.00;;;;;;;;;;6272626;22;20023;-84
2021/08/14 06:55:49;;;;;;;22.63;4.47;;;;;;;;;;6272882;22;20063;-82
2021/08/14 06:58:16;;;;;;;12.98;4.22;;;;;;;;;;6249992;22;20269;-82
2021/08/14 07:00:49;;;;;;;17.83;5.13;;;;;;;;;;6248165;22;20035;-82
2021/08/14 07:03:16;;;;;;;18.38;4.70;;;;;;;;;;6272984;22;20388;-82
2021/08/14 07:05:43;;;;;;;19.48;4.90;;;;;;;;;;6274169;22;20023;-82
2021/08/14 07:08:10;;;;;;;15.35;4.90;;;;;;;;;;6282739;22;20356;-82
2021/08/14 07:10:36;;;;;;;18.27;4.22;;;;;;;;;;6259101;22;20071;-82
2021/08/14 07:13:03;;;;;;;15.75;4.57;;;;;;;;;;6249772;22;20215;-82
2021/08/14 07:15:30;;;;;;;18.35;4.45;;;;;;;;;;6276130;22;20023;-82
2021/08/14 07:17:57;;;;;;;14.50;4.38;;;;;;;;;;6247750;22;20169;-82
2021/08/14 07:20:24;;;;;;;19.13;4.72;;;;;;;;;;6248436;22;20563;-84
2021/08/14 07:22:53;;;;;;;15.30;4.80;;;;;;;;;;6274247;22;20397;-84
2021/08/14 07:25:23;;;;;;;18.92;5.00;;;;;;;;;;6276537;22;20110;-83
2021/08/14 07:27:51;;;;;;;17.20;4.57;;;;;;;;;;6247145;22;20051;-83
2021/08/14 07:30:18;;;;;;;15.75;4.47;;;;;;;;;;6272040;22;20225;-82
2021/08/14 07:32:45;;;;;;;17.55;4.18;;;;;;;;;;6272658;22;20094;-83
2021/08/14 07:35:12;;;;;;;13.23;4.10;;;;;;;;;;6271415;22;20349;-82
2021/08/14 07:37:48;;;;;;;19.38;4.05;;;;;;;;;;6241596;23;20031;-83
2021/08/14 07:40:16;;;;;;;17.65;4.05;;;;;;;;;;6214556;23;20279;-83
2021/08/14 07:42:43;;;;;;;16.63;5.05;;;;;;;;;;6239883;23;20028;-83
2021/08/14 07:45:15;;;;;;;16.85;5.28;;;;;;;;;;6239907;23;20539;-83
2021/08/14 07:47:42;;;;;;;16.33;4.55;;;;;;;;;;6241118;23;20277;-83
2021/08/14 07:50:23;;;;;;;18.15;4.07;;;;;;;;;;6217350;23;20365;-83
2021/08/14 07:52:50;;;;;;;16.00;5.07;;;;;;;;;;6243248;23;20024;-83
2021/08/14 07:55:18;;;;;;;20.35;4.00;;;;;;;;;;6242924;23;20053;-83
2021/08/14 07:57:45;;;;;;;20.05;4.88;;;;;;;;;;6215052;23;20075;-83
2021/08/14 08:00:14;;;;;;;17.08;4.07;;;;;;;;;;6227984;23;20038;-83
2021/08/14 08:02:41;;;;;;;14.00;4.53;;;;;;;;;;6262936;23;20032;-83
2021/08/14 08:05:09;;;;;;;15.05;3.97;;;;;;;;;;6231815;23;20108;-83
2021/08/14 08:07:40;;;;;;;16.80;4.40;;;;;;;;;;6222653;23;20024;-84
2021/08/14 08:10:08;;;;;;;20.95;4.43;;;;;;;;;;6222144;23;20035;-83
2021/08/14 08:12:35;;;;;;;14.88;4.32;;;;;;;;;;6245418;23;20055;-83
2021/08/14 08:15:02;;;;;;;12.70;3.67;;;;;;;;;;6221939;23;20038;-83
2021/08/14 08:17:29;;;;;;;13.20;3.63;;;;;;;;;;6220912;23;20035;-83
2021/08/14 08:19:56;;;;;;;17.63;4.72;;;;;;;;;;6221800;23;20080;-83
2021/08/14 08:22:23;;;;;;;17.83;4.30;;;;;;;;;;6220935;23;20025;-84
2021/08/14 08:24:50;;;;;;;13.13;3.75;;;;;;;;;;6246051;23;20398;-84
2021/08/14 08:27:17;;;;;;;16.65;4.20;;;;;;;;;;6218187;23;20034;-84
2021/08/14 08:29:44;;;;;;;17.20;4.28;;;;;;;;;;6241089;23;20024;-84
2021/08/14 08:32:10;;;;;;;14.68;4.30;;;;;;;;;;6220047;23;20035;-84
2021/08/14 08:34:37;;;;;;;16.88;4.20;;;;;;;;;;6221304;23;20024;-84
2021/08/14 08:37:04;;;;;;;18.65;4.25;;;;;;;;;;6276048;22;20067;-84
2021/08/14 08:39:32;;;;;;;14.85;4.03;;;;;;;;;;6296547;22;20160;-84
2021/08/14 08:41:59;;;;;;;15.15;4.60;;;;;;;;;;6261979;22;20039;-84
2021/08/14 08:44:26;;;;;;;15.38;4.20;;;;;;;;;;6251054;22;20279;-85
2021/08/14 08:46:53;;;;;;;20.85;4.78;;;;;;;;;;6278654;22;20047;-85
2021/08/14 08:49:27;;;;;;;18.92;4.43;;;;;;;;;;6269181;22;20075;-85
2021/08/14 08:51:54;;;;;;;12.73;4.15;;;;;;;;;;6257259;22;20030;-85
2021/08/14 08:54:21;;;;;;;16.73;4.00;;;;;;;;;;6276721;22;20023;-85
2021/08/14 08:56:48;;;;;;;14.93;4.35;;;;;;;;;;6276075;22;20157;-85
2021/08/14 08:59:14;;;;;;;16.05;3.92;;;;;;;;;;6276698;22;20039;-85
2021/08/14 09:01:42;;;;;;;15.30;4.18;;;;;;;;;;6275380;22;20049;-85
2021/08/14 09:04:31;;;;;;;15.02;3.67;;;;;;;;;;6274187;22;20449;-84
2021/08/14 09:06:59;;;;;;;17.73;3.97;;;;;;;;;;6275352;22;20027;-84
2021/08/14 09:09:30;;;;;;;18.35;4.72;;;;;;;;;;6250467;22;20024;-84
2021/08/14 09:12:06;;;;;;;19.15;4.50;;;;;;;;;;6250649;22;20027;-84
2021/08/14 09:15:02;;;;;;;13.70;3.50;;;;;;;;;;6252921;22;20032;-84
2021/08/14 09:17:29;;;;;;;16.90;4.33;;;;;;;;;;6266216;22;20012;-84
2021/08/14 09:20:06;;;;;;;17.88;4.32;;;;;;;;;;6268034;22;20080;-84
2021/08/14 09:22:33;;;;;;;21.02;4.90;;;;;;;;;;6267269;22;20024;-85
2021/08/14 09:25:10;;;;;;;13.73;3.70;;;;;;;;;;6287561;22;20097;-84
2021/08/14 09:27:57;;;;;;;15.07;4.28;;;;;;;;;;6277799;22;20451;-85
2021/08/14 09:30:42;;;;;;;16.13;4.70;;;;;;;;;;6250321;22;20031;-85
2021/08/14 09:33:10;;;;;;;19.25;4.38;;;;;;;;;;6276429;22;20031;-85
2021/08/14 09:35:37;;;;;;;12.40;3.78;;;;;;;;;;6276414;22;20067;-83
2021/08/14 09:38:05;;;;;;;11.57;4.32;;;;;;;;;;6250352;22;20059;-83
2021/08/14 09:40:42;;;;;;;15.18;4.13;;;;;;;;;;6249832;22;20077;-84
2021/08/14 09:43:09;;;;;;;12.07;3.70;;;;;;;;;;6250592;22;20033;-84
2021/08/14 09:45:36;;;;;;;21.10;4.28;;;;;;;;;;6277202;22;20646;-84
2021/08/14 09:48:16;;;;;;;17.40;4.45;;;;;;;;;;6250131;22;20312;-84
2021/08/14 09:50:43;;;;;;;12.02;4.10;;;;;;;;;;6249374;22;20066;-84
2021/08/14 09:53:10;;;;;;;15.23;4.47;;;;;;;;;;6290120;22;20023;-85
2021/08/14 09:55:41;;;;;;;15.00;4.13;;;;;;;;;;6247924;22;20175;-85
2021/08/14 09:58:11;;;;;;;11.95;3.63;;;;;;;;;;6251125;22;20546;-83
2021/08/14 10:00:39;;;;;;;10.70;4.00;;;;;;;;;;6250288;22;20023;-83
2021/08/14 10:03:16;;;;;;;10.10;3.70;;;;;;;;;;6250277;22;20077;-85
2021/08/14 10:05:44;;;;;;;13.65;3.72;;;;;;;;;;6251079;22;20106;-85
2021/08/14 10:08:11;;;;;;;12.52;3.20;;;;;;;;;;6255317;22;20023;-84
2021/08/14 10:10:51;;;;;;;11.85;3.47;;;;;;;;;;6252373;22;20023;-85
2021/08/14 10:13:18;;;;;;;11.30;3.65;;;;;;;;;;6280198;22;20030;-84
2021/08/14 10:15:45;;;;;;;12.02;3.53;;;;;;;;;;6255081;22;20085;-83
2021/08/14 10:18:14;;;;;;;16.48;4.38;;;;;;;;;;6254434;22;20454;-85
2021/08/14 10:20:42;;;;;;;10.10;3.53;;;;;;;;;;6257889;22;20035;-86
2021/08/14 10:23:10;;;;;;;12.10;3.80;;;;;;;;;;6288256;22;20250;-84
2021/08/14 10:25:38;;;;;;;8.57;3.33;;;;;;;;;;6257328;22;20276;-85
2021/08/14 10:28:07;;;;;;;13.68;3.33;;;;;;;;;;6248110;22;20374;-84
2021/08/14 10:30:34;;;;;;;11.43;3.30;;;;;;;;;;6274366;22;20082;-84
2021/08/14 10:33:01;;;;;;;10.20;3.05;;;;;;;;;;6249385;22;20042;-84
2021/08/14 10:35:29;;;;;;;12.18;3.47;;;;;;;;;;6273246;22;20024;-85
2021/08/14 10:37:58;;;;;;;14.98;3.42;;;;;;;;;;6248648;22;20041;-85
2021/08/14 10:40:45;;;;;;;12.60;3.95;;;;;;;;;;6285992;22;20034;-83
2021/08/14 10:43:12;;;;;;;11.98;3.42;;;;;;;;;;6290667;22;20023;-84
2021/08/14 10:45:38;;;;;;;8.13;2.90;;;;;;;;;;6276734;22;20055;-85
2021/08/14 10:48:11;;;;;;;12.75;3.30;;;;;;;;;;6278716;22;20026;-83
2021/08/14 10:50:51;;;;;;;11.63;3.38;;;;;;;;;;6271432;22;20024;-85
2021/08/14 10:53:22;;;;;;;10.10;3.40;;;;;;;;;;6276300;22;20024;-84
2021/08/14 10:55:51;;;;;;;11.77;3.33;;;;;;;;;;6275236;22;20027;-85
2021/08/14 10:58:23;;;;;;;8.25;3.30;;;;;;;;;;6248669;22;20362;-85
2021/08/14 11:00:52;;;;;;;10.43;3.45;;;;;;;;;;6246873;22;20540;-85
2021/08/14 11:03:36;;;;;;;12.57;3.13;;;;;;;;;;6246553;22;20059;-85
2021/08/14 11:06:22;;;;;;;10.63;3.28;;;;;;;;;;6247296;22;20114;-84
2021/08/14 11:09:08;;;;;;;13.35;3.33;;;;;;;;;;6275827;22;20136;-84
2021/08/14 11:11:36;;;;;;;13.68;3.70;;;;;;;;;;6274813;22;20055;-85
2021/08/14 11:14:07;;;;;;;16.85;3.53;;;;;;;;;;6276808;22;20033;-85
2021/08/14 11:16:53;;;;;;;16.23;3.40;;;;;;;;;;6256106;22;20111;-85
2021/08/14 11:19:57;;;;;;;12.60;3.30;;;;;;;;;;6254802;22;20030;-86
2021/08/14 11:22:46;;;;;;;9.18;3.10;;;;;;;;;;6152895;23;20037;-86
2021/08/14 11:25:24;;;;;;;13.27;3.15;;;;;;;;;;6276864;22;20071;-84
2021/08/14 11:27:55;;;;;;;16.10;3.00;;;;;;;;;;6276919;22;20020;-85
2021/08/14 11:30:24;;;;;;;9.90;2.75;;;;;;;;;;6291505;22;20035;-85
2021/08/14 11:32:51;;;;;;;15.50;3.63;;;;;;;;;;6266360;22;20028;-85
2021/08/14 11:35:20;;;;;;;13.43;3.05;;;;;;;;;;6254112;22;20204;-85
2021/08/14 11:37:58;;;;;;;14.23;3.38;;;;;;;;;;6282865;22;20235;-84
2021/08/14 11:40:51;;;;;;;9.95;3.45;;;;;;;;;;6294887;22;20011;-84
2021/08/14 11:43:18;;;;;;;13.15;3.13;;;;;;;;;;6256752;22;20027;-84
2021/08/14 11:45:45;;;;;;;14.45;3.72;;;;;;;;;;6280756;22;20177;-85
2021/08/14 11:48:13;;;;;;;10.15;3.10;;;;;;;;;;6254682;22;20020;-84
2021/08/14 11:50:41;;;;;;;11.60;3.53;;;;;;;;;;6280161;22;20034;-85
2021/08/14 11:53:12;;;;;;;12.52;3.08;;;;;;;;;;6279328;22;20043;-85
2021/08/14 11:55:39;;;;;;;10.18;2.92;;;;;;;;;;6279574;22;20339;-85
2021/08/14 11:58:06;;;;;;;8.60;2.65;;;;;;;;;;6252772;22;20173;-84
2021/08/14 12:00:34;;;;;;;8.82;3.45;;;;;;;;;;6284533;22;20007;-85
2021/08/14 12:03:17;;;;;;;7.40;3.08;;;;;;;;;;6293068;22;20024;-84
2021/08/14 12:05:45;;;;;;;9.57;3.30;;;;;;;;;;6289820;22;20034;-84
2021/08/14 12:08:31;;;;;;;10.80;3.03;;;;;;;;;;6252755;22;20028;-84
2021/08/14 12:11:17;;;;;;;13.90;3.45;;;;;;;;;;6250083;22;20066;-83
2021/08/14 12:13:45;;;;;;;9.02;2.88;;;;;;;;;;6252874;22;20019;-84
2021/08/14 12:16:19;;;;;;;9.25;2.72;;;;;;;;;;6275591;22;20026;-84
2021/08/14 12:18:47;;;;;;;9.80;2.70;;;;;;;;;;6248337;22;20417;-85
2021/08/14 12:21:15;;;;;;;10.52;3.20;;;;;;;;;;6275893;22;20055;-85
2021/08/14 12:23:43;;;;;;;10.55;3.03;;;;;;;;;;6251353;22;20031;-85
2021/08/14 12:26:11;;;;;;;9.45;2.83;;;;;;;;;;6249068;22;20023;-85
2021/08/14 12:28:41;;;;;;;9.55;2.67;;;;;;;;;;6278865;22;20024;-85
2021/08/14 12:31:19;;;;;;;8.95;2.90;;;;;;;;;;6267526;22;20023;-83
2021/08/14 12:33:49;;;;;;;11.43;3.40;;;;;;;;;;6266523;22;20007;-84
2021/08/14 12:36:31;;;;;;;10.55;3.28;;;;;;;;;;6265951;22;20011;-84
2021/08/14 12:38:58;;;;;;;8.63;3.05;;;;;;;;;;6265899;22;20023;-84
2021/08/14 12:41:25;;;;;;;9.18;2.38;;;;;;;;;;6265170;22;20031;-85
2021/08/14 12:43:53;;;;;;;9.23;3.05;;;;;;;;;;6259132;22;20034;-85
2021/08/14 12:46:23;;;;;;;9.38;2.80;;;;;;;;;;6277839;22;20026;-85
2021/08/14 12:49:11;;;;;;;10.38;3.13;;;;;;;;;;6252115;22;20085;-85
2021/08/14 12:51:38;;;;;;;8.57;2.83;;;;;;;;;;6252632;22;20082;-85
2021/08/14 12:54:14;;;;;;;9.40;2.97;;;;;;;;;;6275931;22;20020;-84
2021/08/14 12:56:40;;;;;;;7.65;3.30;;;;;;;;;;6265883;22;20038;-83
2021/08/14 12:59:07;;;;;;;9.10;3.03;;;;;;;;;;6291236;22;20016;-83
2021/08/14 13:01:34;;;;;;;9.45;2.85;;;;;;;;;;6292341;22;20118;-83
2021/08/14 13:04:04;;;;;;;7.75;2.78;;;;;;;;;;6283114;22;20267;-83
2021/08/14 13:06:31;;;;;;;7.78;2.70;;;;;;;;;;6276915;22;20044;-83
2021/08/14 13:08:57;;;;;;;10.48;3.22;;;;;;;;;;6250601;22;20081;-84
2021/08/14 13:11:25;;;;;;;8.23;2.45;;;;;;;;;;6275478;22;20279;-84
2021/08/14 13:13:52;;;;;;;9.48;2.55;;;;;;;;;;6250602;22;20067;-83
2021/08/14 13:16:18;;;;;;;9.52;3.05;;;;;;;;;;6249149;22;20028;-84
2021/08/14 13:18:45;;;;;;;9.10;2.70;;;;;;;;;;6278492;22;20035;-84
2021/08/14 13:21:18;;;;;;;7.72;2.55;;;;;;;;;;6290378;22;20059;-84
2021/08/14 13:23:45;;;;;;;8.82;2.85;;;;;;;;;;6288936;22;20050;-85
2021/08/14 13:26:12;;;;;;;8.13;2.70;;;;;;;;;;6279855;22;20075;-85
2021/08/14 13:28:42;;;;;;;11.13;3.15;;;;;;;;;;6280637;22;20253;-85
2021/08/14 13:31:11;;;;;;;10.82;2.90;;;;;;;;;;6249859;22;20035;-85
2021/08/14 13:33:41;;;;;;;8.30;2.60;;;;;;;;;;6249036;22;20088;-83
2021/08/14 13:36:08;;;;;;;10.38;3.00;;;;;;;;;;6278938;22;20031;-83
2021/08/14 13:38:35;;;;;;;8.05;3.10;;;;;;;;;;6289304;22;20290;-84
2021/08/14 13:41:02;;;;;;;12.40;2.75;;;;;;;;;;6288921;22;20076;-84
2021/08/14 13:43:38;;;;;;;7.82;2.42;;;;;;;;;;6248933;22;20103;-84
2021/08/14 13:46:05;;;;;;;7.22;2.60;;;;;;;;;;6248995;22;20028;-85
2021/08/14 13:48:31;;;;;;;9.07;3.00;;;;;;;;;;6250876;22;20325;-86
2021/08/14 13:50:58;;;;;;;8.55;2.72;;;;;;;;;;6250961;22;20030;-86
2021/08/14 13:53:31;;;;;;;7.93;2.80;;;;;;;;;;6277824;22;20048;-85
2021/08/14 13:55:58;;;;;;;10.05;3.15;;;;;;;;;;6252176;22;20028;-85
2021/08/14 13:58:27;;;;;;;8.82;2.70;;;;;;;;;;6292214;22;20022;-84
2021/08/14 14:01:03;;;;;;;10.07;3.10;;;;;;;;;;6257189;22;20042;-85
2021/08/14 14:03:31;;;;;;;12.35;3.38;;;;;;;;;;6262739;22;20109;-86
2021/08/14 14:05:57;;;;;;;8.30;2.72;;;;;;;;;;6283112;22;20028;-86
2021/08/14 14:08:24;;;;;;;9.32;2.88;;;;;;;;;;6287129;22;20020;-85
2021/08/14 14:10:50;;;;;;;7.18;2.83;;;;;;;;;;6284263;22;20159;-86
2021/08/14 14:13:17;;;;;;;9.10;2.88;;;;;;;;;;6285299;22;20185;-85
2021/08/14 14:15:44;;;;;;;9.52;2.90;;;;;;;;;;6285661;22;20393;-84
2021/08/14 14:18:11;;;;;;;11.77;2.97;;;;;;;;;;6250030;22;20099;-85
2021/08/14 14:20:38;;;;;;;8.80;2.60;;;;;;;;;;6288280;22;20075;-85
2021/08/14 14:23:05;;;;;;;12.23;3.88;;;;;;;;;;6290615;22;20068;-85
2021/08/14 14:25:32;;;;;;;8.85;3.42;;;;;;;;;;6250080;22;20034;-85
2021/08/14 14:28:06;;;;;;;8.43;2.97;;;;;;;;;;5110556;27;20610;-85
2021/08/14 14:30:33;;;;;;;9.13;2.70;;;;;;;;;;5121110;27;20043;-85
2021/08/14 14:33:01;;;;;;;7.68;3.05;;;;;;;;;;5118670;27;20210;-84
2021/08/14 14:35:27;;;;;;;8.38;3.10;;;;;;;;;;5109517;28;20082;-86
2021/08/14 14:37:54;;;;;;;9.50;2.78;;;;;;;;;;5114556;28;20054;-86
2021/08/14 14:40:21;;;;;;;7.60;3.00;;;;;;;;;;5124126;27;20035;-86
2021/08/14 14:42:48;;;;;;;8.82;2.80;;;;;;;;;;5120898;28;20240;-84
2021/08/14 14:45:15;;;;;;;8.13;3.13;;;;;;;;;;5109855;28;20051;-84